sensor_id;sensor_type;location;lat;lon;timestamp;pressure;altitude;pressure_sealevel;temperature;humidity
39769;BME280;38939;47.824;14.642;2024-03-08T00:00:29;97027.59;;;3.53;81.46
39769;BME280;38939;47.824;14.642;2024-03-08T00:01:34;97023.06;;;3.55;81.21
39769;BME280;38939;47.824;14.642;2024-03-08T00:02:39;97023.72;;;3.57;81.11
39769;BME280;38939;47.824;14.642;2024-03-08T00:03:42;97022.59;;;3.59;81.14
39769;BME280;38939;47.824;14.642;2024-03-08T00:04:44;97026.81;;;3.60;81.15
39769;BME280;38939;47.824;14.642;2024-03-08T00:05:46;97025.03;;;3.61;80.54
39769;BME280;38939;47.824;14.642;2024-03-08T00:06:48;97024.88;;;3.63;80.85
39769;BME280;38939;47.824;14.642;2024-03-08T00:07:50;97026.53;;;3.64;80.55
39769;BME280;38939;47.824;14.642;2024-03-08T00:08:51;97019.88;;;3.61;80.28
39769;BME280;38939;47.824;14.642;2024-03-08T00:09:53;97026.63;;;3.54;80.29
39769;BME280;38939;47.824;14.642;2024-03-08T00:10:55;97026.59;;;3.46;80.50
39769;BME280;38939;47.824;14.642;2024-03-08T00:11:57;97024.63;;;3.39;80.98
39769;BME280;38939;47.824;14.642;2024-03-08T00:12:59;97028.47;;;3.35;80.62
39769;BME280;38939;47.824;14.642;2024-03-08T00:14:01;97029.91;;;3.30;80.80
39769;BME280;38939;47.824;14.642;2024-03-08T00:15:04;97022.72;;;3.15;81.32
39769;BME280;38939;47.824;14.642;2024-03-08T00:16:06;97017.72;;;3.14;81.77
39769;BME280;38939;47.824;14.642;2024-03-08T00:17:09;97017.94;;;3.03;81.30
39769;BME280;38939;47.824;14.642;2024-03-08T00:18:11;97018.34;;;2.90;82.25
39769;BME280;38939;47.824;14.642;2024-03-08T00:19:13;97020.13;;;2.89;82.65
39769;BME280;38939;47.824;14.642;2024-03-08T00:20:15;97019.03;;;2.92;82.34
39769;BME280;38939;47.824;14.642;2024-03-08T00:21:20;97020.47;;;2.94;83.02
39769;BME280;38939;47.824;14.642;2024-03-08T00:22:22;97024.53;;;2.97;82.53
39769;BME280;38939;47.824;14.642;2024-03-08T00:23:24;97013.41;;;2.96;82.32
39769;BME280;38939;47.824;14.642;2024-03-08T00:24:26;97017.63;;;2.97;82.64
39769;BME280;38939;47.824;14.642;2024-03-08T00:25:29;97021.50;;;3.02;83.19
39769;BME280;38939;47.824;14.642;2024-03-08T00:26:31;97019.22;;;2.98;82.87
39769;BME280;38939;47.824;14.642;2024-03-08T00:27:34;97019.22;;;2.98;82.83
39769;BME280;38939;47.824;14.642;2024-03-08T00:28:36;97014.53;;;2.94;83.61
39769;BME280;38939;47.824;14.642;2024-03-08T00:29:38;97011.44;;;2.90;83.43
39769;BME280;38939;47.824;14.642;2024-03-08T00:30:40;97008.25;;;2.96;83.62
39769;BME280;38939;47.824;14.642;2024-03-08T00:31:42;97012.97;;;3.01;83.47
39769;BME280;38939;47.824;14.642;2024-03-08T00:32:44;97016.34;;;3.02;83.32
39769;BME280;38939;47.824;14.642;2024-03-08T00:33:46;97013.63;;;3.03;83.18
39769;BME280;38939;47.824;14.642;2024-03-08T00:34:48;97007.66;;;3.03;83.19
39769;BME280;38939;47.824;14.642;2024-03-08T00:35:49;97009.88;;;2.97;83.35
39769;BME280;38939;47.824;14.642;2024-03-08T00:36:51;97018.13;;;3.01;83.47
39769;BME280;38939;47.824;14.642;2024-03-08T00:37:54;97008.16;;;3.06;83.82
39769;BME280;38939;47.824;14.642;2024-03-08T00:38:57;97007.88;;;3.09;83.45
39769;BME280;38939;47.824;14.642;2024-03-08T00:40:02;97011.09;;;3.11;83.61
39769;BME280;38939;47.824;14.642;2024-03-08T00:41:05;97012.69;;;3.12;83.34
39769;BME280;38939;47.824;14.642;2024-03-08T00:42:06;97009.19;;;3.13;83.07
39769;BME280;38939;47.824;14.642;2024-03-08T00:43:08;97011.59;;;3.15;82.50
39769;BME280;38939;47.824;14.642;2024-03-08T00:44:10;97004.81;;;3.14;82.51
39769;BME280;38939;47.824;14.642;2024-03-08T00:45:12;97006.59;;;3.13;82.44
39769;BME280;38939;47.824;14.642;2024-03-08T00:46:14;97009.47;;;3.10;82.92
39769;BME280;38939;47.824;14.642;2024-03-08T00:47:19;97003.19;;;3.13;82.49
39769;BME280;38939;47.824;14.642;2024-03-08T00:48:21;97000.97;;;3.18;82.41
39769;BME280;38939;47.824;14.642;2024-03-08T00:49:23;97006.78;;;3.20;82.59
39769;BME280;38939;47.824;14.642;2024-03-08T00:50:25;97003.09;;;3.23;82.08
39769;BME280;38939;47.824;14.642;2024-03-08T00:51:27;97001.16;;;3.25;82.18
39769;BME280;38939;47.824;14.642;2024-03-08T00:52:29;97006.31;;;3.25;81.86
39769;BME280;38939;47.824;14.642;2024-03-08T00:53:31;97001.97;;;3.25;82.28
39769;BME280;38939;47.824;14.642;2024-03-08T00:54:33;96999.09;;;3.28;81.97
39769;BME280;38939;47.824;14.642;2024-03-08T00:55:35;96993.78;;;3.30;82.28
39769;BME280;38939;47.824;14.642;2024-03-08T00:56:37;96999.59;;;3.32;81.94
39769;BME280;38939;47.824;14.642;2024-03-08T00:57:40;96997.84;;;3.32;81.61
39769;BME280;38939;47.824;14.642;2024-03-08T00:58:42;96992.63;;;3.24;81.84
39769;BME280;38939;47.824;14.642;2024-03-08T00:59:44;96994.84;;;3.19;82.38
39769;BME280;38939;47.824;14.642;2024-03-08T01:00:47;97000.00;;;3.19;82.44
39769;BME280;38939;47.824;14.642;2024-03-08T01:01:50;96990.66;;;3.18;82.24
39769;BME280;38939;47.824;14.642;2024-03-08T01:02:51;96990.97;;;3.15;82.14
39769;BME280;38939;47.824;14.642;2024-03-08T01:03:53;96986.41;;;3.09;82.59
39769;BME280;38939;47.824;14.642;2024-03-08T01:04:55;96995.94;;;3.08;82.55
39769;BME280;38939;47.824;14.642;2024-03-08T01:05:57;96988.03;;;3.10;83.13
39769;BME280;38939;47.824;14.642;2024-03-08T01:07:00;96988.34;;;3.07;82.96
39769;BME280;38939;47.824;14.642;2024-03-08T01:08:02;96987.38;;;3.08;83.37
39769;BME280;38939;47.824;14.642;2024-03-08T01:09:04;96989.81;;;3.09;82.88
39769;BME280;38939;47.824;14.642;2024-03-08T01:10:09;96989.91;;;2.99;83.34
39769;BME280;38939;47.824;14.642;2024-03-08T01:11:12;96988.28;;;2.98;83.44
39769;BME280;38939;47.824;14.642;2024-03-08T01:12:15;96985.41;;;3.02;83.17
39769;BME280;38939;47.824;14.642;2024-03-08T01:13:17;96987.25;;;3.09;83.41
39769;BME280;38939;47.824;14.642;2024-03-08T01:14:21;96991.56;;;3.09;83.11
39769;BME280;38939;47.824;14.642;2024-03-08T01:15:27;96985.09;;;3.05;83.24
39769;BME280;38939;47.824;14.642;2024-03-08T01:16:29;96981.38;;;2.99;83.56
39769;BME280;38939;47.824;14.642;2024-03-08T01:17:31;96974.59;;;2.98;83.07
39769;BME280;38939;47.824;14.642;2024-03-08T01:18:33;96980.28;;;3.02;83.05
39769;BME280;38939;47.824;14.642;2024-03-08T01:19:36;96974.50;;;3.08;82.94
39769;BME280;38939;47.824;14.642;2024-03-08T01:20:37;96970.34;;;3.15;82.90
39769;BME280;38939;47.824;14.642;2024-03-08T01:21:39;96971.97;;;3.16;82.58
39769;BME280;38939;47.824;14.642;2024-03-08T01:22:41;96974.69;;;3.14;82.57
39769;BME280;38939;47.824;14.642;2024-03-08T01:23:43;96966.66;;;3.17;82.57
39769;BME280;38939;47.824;14.642;2024-03-08T01:24:45;96966.19;;;3.22;82.42
39769;BME280;38939;47.824;14.642;2024-03-08T01:25:47;96967.50;;;3.26;82.35
39769;BME280;38939;47.824;14.642;2024-03-08T01:26:50;96968.16;;;3.28;82.50
39769;BME280;38939;47.824;14.642;2024-03-08T01:27:52;96968.00;;;3.30;82.17
39769;BME280;38939;47.824;14.642;2024-03-08T01:28:55;96963.34;;;3.33;81.94
39769;BME280;38939;47.824;14.642;2024-03-08T01:29:57;96966.38;;;3.29;82.11
39769;BME280;38939;47.824;14.642;2024-03-08T01:31:01;96962.53;;;3.33;82.05
39769;BME280;38939;47.824;14.642;2024-03-08T01:32:05;96964.44;;;3.31;81.81
39769;BME280;38939;47.824;14.642;2024-03-08T01:33:07;96951.41;;;3.32;81.48
39769;BME280;38939;47.824;14.642;2024-03-08T01:34:09;96959.66;;;3.36;81.41
39769;BME280;38939;47.824;14.642;2024-03-08T01:35:12;96955.28;;;3.36;81.44
39769;BME280;38939;47.824;14.642;2024-03-08T01:36:13;96951.44;;;3.40;81.26
39769;BME280;38939;47.824;14.642;2024-03-08T01:37:17;96955.31;;;3.45;81.62
39769;BME280;38939;47.824;14.642;2024-03-08T01:38:19;96951.47;;;3.49;81.41
39769;BME280;38939;47.824;14.642;2024-03-08T01:39:22;96955.03;;;3.48;81.38
39769;BME280;38939;47.824;14.642;2024-03-08T01:40:24;96950.53;;;3.50;81.34
39769;BME280;38939;47.824;14.642;2024-03-08T01:41:26;96952.28;;;3.49;80.63
39769;BME280;38939;47.824;14.642;2024-03-08T01:42:31;96950.50;;;3.42;80.92
39769;BME280;38939;47.824;14.642;2024-03-08T01:43:33;96948.06;;;3.40;80.53
39769;BME280;38939;47.824;14.642;2024-03-08T01:44:35;96950.13;;;3.36;80.65
39769;BME280;38939;47.824;14.642;2024-03-08T01:45:37;96945.44;;;3.24;80.73
39769;BME280;38939;47.824;14.642;2024-03-08T01:46:39;96937.47;;;3.17;81.13
39769;BME280;38939;47.824;14.642;2024-03-08T01:47:41;96943.25;;;3.11;81.29
39769;BME280;38939;47.824;14.642;2024-03-08T01:48:43;96939.72;;;3.12;81.81
39769;BME280;38939;47.824;14.642;2024-03-08T01:49:45;96947.97;;;3.15;81.62
39769;BME280;38939;47.824;14.642;2024-03-08T01:50:47;96943.59;;;3.16;82.19
39769;BME280;38939;47.824;14.642;2024-03-08T01:51:49;96938.97;;;3.19;81.80
39769;BME280;38939;47.824;14.642;2024-03-08T01:52:51;96937.69;;;3.24;81.79
39769;BME280;38939;47.824;14.642;2024-03-08T01:53:54;96940.09;;;3.25;82.01
39769;BME280;38939;47.824;14.642;2024-03-08T01:54:59;96932.06;;;3.28;81.63
39769;BME280;38939;47.824;14.642;2024-03-08T01:56:02;96936.84;;;3.23;81.79
39769;BME280;38939;47.824;14.642;2024-03-08T01:57:04;96933.81;;;3.19;81.94
39769;BME280;38939;47.824;14.642;2024-03-08T01:58:07;96932.69;;;3.22;81.96
39769;BME280;38939;47.824;14.642;2024-03-08T01:59:11;96926.91;;;3.28;81.53
39769;BME280;38939;47.824;14.642;2024-03-08T02:00:13;96934.34;;;3.31;81.28
39769;BME280;38939;47.824;14.642;2024-03-08T02:01:15;96928.22;;;3.32;81.27
39769;BME280;38939;47.824;14.642;2024-03-08T02:02:17;96924.81;;;3.32;81.33
39769;BME280;38939;47.824;14.642;2024-03-08T02:03:20;96933.38;;;3.32;81.60
39769;BME280;38939;47.824;14.642;2024-03-08T02:04:22;96933.69;;;3.29;81.69
39769;BME280;38939;47.824;14.642;2024-03-08T02:05:26;96923.38;;;3.29;81.30
39769;BME280;38939;47.824;14.642;2024-03-08T02:06:28;96928.22;;;3.32;81.26
39769;BME280;38939;47.824;14.642;2024-03-08T02:07:29;96920.19;;;3.35;81.15
39769;BME280;38939;47.824;14.642;2024-03-08T02:08:31;96923.22;;;3.39;81.18
39769;BME280;38939;47.824;14.642;2024-03-08T02:09:34;96920.19;;;3.44;81.22
39769;BME280;38939;47.824;14.642;2024-03-08T02:10:36;96920.03;;;3.45;81.18
39769;BME280;38939;47.824;14.642;2024-03-08T02:11:38;96914.88;;;3.45;80.76
39769;BME280;38939;47.824;14.642;2024-03-08T02:12:42;96921.47;;;3.39;81.07
39769;BME280;38939;47.824;14.642;2024-03-08T02:13:44;96922.56;;;3.37;81.00
39769;BME280;38939;47.824;14.642;2024-03-08T02:14:46;96919.19;;;3.36;80.96
39769;BME280;38939;47.824;14.642;2024-03-08T02:15:58;96913.09;;;3.37;80.83
39769;BME280;38939;47.824;14.642;2024-03-08T02:17:04;96914.69;;;3.38;80.77
39769;BME280;38939;47.824;14.642;2024-03-08T02:18:06;96922.13;;;3.42;80.96
39769;BME280;38939;47.824;14.642;2024-03-08T02:19:08;96910.53;;;3.46;80.91
39769;BME280;38939;47.824;14.642;2024-03-08T02:20:11;96918.28;;;3.46;80.85
39769;BME280;38939;47.824;14.642;2024-03-08T02:21:16;96916.97;;;3.42;81.05
39769;BME280;38939;47.824;14.642;2024-03-08T02:22:22;96919.22;;;3.45;80.93
39769;BME280;38939;47.824;14.642;2024-03-08T02:23:25;96911.19;;;3.48;80.84
39769;BME280;38939;47.824;14.642;2024-03-08T02:24:27;96921.31;;;3.49;80.70
39769;BME280;38939;47.824;14.642;2024-03-08T02:25:29;96918.75;;;3.49;80.73
39769;BME280;38939;47.824;14.642;2024-03-08T02:26:32;96922.16;;;3.50;80.35
39769;BME280;38939;47.824;14.642;2024-03-08T02:27:34;96917.78;;;3.50;80.50
39769;BME280;38939;47.824;14.642;2024-03-08T02:28:36;96921.31;;;3.49;80.47
39769;BME280;38939;47.824;14.642;2024-03-08T02:29:38;96919.41;;;3.51;80.12
39769;BME280;38939;47.824;14.642;2024-03-08T02:30:42;96913.44;;;3.51;80.64
39769;BME280;38939;47.824;14.642;2024-03-08T02:31:44;96909.91;;;3.52;80.37
39769;BME280;38939;47.824;14.642;2024-03-08T02:32:46;96914.09;;;3.53;80.53
39769;BME280;38939;47.824;14.642;2024-03-08T02:33:48;96913.44;;;3.51;80.00
39769;BME280;38939;47.824;14.642;2024-03-08T02:34:50;96913.75;;;3.48;80.23
39769;BME280;38939;47.824;14.642;2024-03-08T02:35:52;96912.75;;;3.40;80.51
39769;BME280;38939;47.824;14.642;2024-03-08T02:36:54;96913.56;;;3.41;80.44
39769;BME280;38939;47.824;14.642;2024-03-08T02:37:58;96912.75;;;3.40;80.71
39769;BME280;38939;47.824;14.642;2024-03-08T02:39:03;96913.09;;;3.37;80.74
39769;BME280;38939;47.824;14.642;2024-03-08T02:40:07;96910.00;;;3.34;80.59
39769;BME280;38939;47.824;14.642;2024-03-08T02:41:09;96913.38;;;3.34;80.32
39769;BME280;38939;47.824;14.642;2024-03-08T02:42:12;96912.25;;;3.37;80.37
39769;BME280;38939;47.824;14.642;2024-03-08T02:43:15;96912.09;;;3.38;80.50
39769;BME280;38939;47.824;14.642;2024-03-08T02:44:17;96915.81;;;3.36;80.62
39769;BME280;38939;47.824;14.642;2024-03-08T02:45:19;96916.44;;;3.30;80.79
39769;BME280;38939;47.824;14.642;2024-03-08T02:46:20;96920.44;;;3.24;80.30
39769;BME280;38939;47.824;14.642;2024-03-08T02:47:22;96914.94;;;3.19;80.50
39769;BME280;38939;47.824;14.642;2024-03-08T02:48:28;96912.19;;;3.20;80.61
39769;BME280;38939;47.824;14.642;2024-03-08T02:49:30;96909.28;;;3.15;80.79
39769;BME280;38939;47.824;14.642;2024-03-08T02:50:32;96908.78;;;3.12;80.98
39769;BME280;38939;47.824;14.642;2024-03-08T02:51:36;96912.50;;;3.09;81.12
39769;BME280;38939;47.824;14.642;2024-03-08T02:52:38;96907.00;;;3.12;81.66
39769;BME280;38939;47.824;14.642;2024-03-08T02:53:40;96908.66;;;3.13;80.93
39769;BME280;38939;47.824;14.642;2024-03-08T02:54:41;96907.53;;;3.16;81.04
39769;BME280;38939;47.824;14.642;2024-03-08T02:55:43;96902.69;;;3.21;81.24
39769;BME280;38939;47.824;14.642;2024-03-08T02:56:46;96903.97;;;3.17;81.52
39769;BME280;38939;47.824;14.642;2024-03-08T02:57:54;96898.00;;;3.16;81.56
39769;BME280;38939;47.824;14.642;2024-03-08T02:58:58;96901.25;;;3.18;81.64
39769;BME280;38939;47.824;14.642;2024-03-08T03:00:00;96897.53;;;3.21;82.02
39769;BME280;38939;47.824;14.642;2024-03-08T03:01:02;96903.34;;;3.23;81.83
39769;BME280;38939;47.824;14.642;2024-03-08T03:02:04;96897.53;;;3.21;82.00
39769;BME280;38939;47.824;14.642;2024-03-08T03:03:06;96902.03;;;3.19;81.79
39769;BME280;38939;47.824;14.642;2024-03-08T03:04:09;96897.38;;;3.23;81.89
39769;BME280;38939;47.824;14.642;2024-03-08T03:05:11;96897.53;;;3.21;81.90
39769;BME280;38939;47.824;14.642;2024-03-08T03:06:13;96901.88;;;3.20;81.83
39769;BME280;38939;47.824;14.642;2024-03-08T03:07:14;96898.38;;;3.22;81.93
39769;BME280;38939;47.824;14.642;2024-03-08T03:08:16;96902.69;;;3.21;81.71
39769;BME280;38939;47.824;14.642;2024-03-08T03:09:20;96896.44;;;3.24;81.75
39769;BME280;38939;47.824;14.642;2024-03-08T03:10:25;96900.16;;;3.29;81.61
39769;BME280;38939;47.824;14.642;2024-03-08T03:11:27;96892.72;;;3.26;81.58
39769;BME280;38939;47.824;14.642;2024-03-08T03:12:29;96899.47;;;3.19;81.45
39769;BME280;38939;47.824;14.642;2024-03-08T03:13:31;96894.78;;;3.14;81.90
39769;BME280;38939;47.824;14.642;2024-03-08T03:14:36;96884.63;;;3.13;81.81
39769;BME280;38939;47.824;14.642;2024-03-08T03:15:41;96887.66;;;3.08;82.07
39769;BME280;38939;47.824;14.642;2024-03-08T03:16:43;96895.22;;;3.02;82.22
39769;BME280;38939;47.824;14.642;2024-03-08T03:17:46;96891.00;;;3.00;81.76
39769;BME280;38939;47.824;14.642;2024-03-08T03:18:48;96889.91;;;3.03;81.69
39769;BME280;38939;47.824;14.642;2024-03-08T03:19:51;96885.72;;;3.02;81.74
39769;BME280;38939;47.824;14.642;2024-03-08T03:20:55;96883.63;;;3.06;81.81
39769;BME280;38939;47.824;14.642;2024-03-08T03:21:57;96883.97;;;3.11;82.04
39769;BME280;38939;47.824;14.642;2024-03-08T03:22:59;96885.13;;;3.16;81.44
39769;BME280;38939;47.824;14.642;2024-03-08T03:24:04;96874.00;;;3.16;81.87
39769;BME280;38939;47.824;14.642;2024-03-08T03:25:12;96874.13;;;3.06;81.42
39769;BME280;38939;47.824;14.642;2024-03-08T03:26:14;96880.25;;;3.05;81.62
39769;BME280;38939;47.824;14.642;2024-03-08T03:27:19;96876.19;;;3.03;82.02
39769;BME280;38939;47.824;14.642;2024-03-08T03:28:21;96878.47;;;3.06;81.50
39769;BME280;38939;47.824;14.642;2024-03-08T03:29:25;96874.78;;;3.08;81.54
39769;BME280;38939;47.824;14.642;2024-03-08T03:30:28;96878.00;;;3.10;81.48
39769;BME280;38939;47.824;14.642;2024-03-08T03:31:35;96881.75;;;3.16;81.30
39769;BME280;38939;47.824;14.642;2024-03-08T03:32:37;96883.00;;;3.12;81.65
39769;BME280;38939;47.824;14.642;2024-03-08T03:33:48;96883.28;;;3.00;81.42
39769;BME280;38939;47.824;14.642;2024-03-08T03:34:53;96885.19;;;2.98;82.06
39769;BME280;38939;47.824;14.642;2024-03-08T03:35:56;96880.25;;;3.05;81.71
39769;BME280;38939;47.824;14.642;2024-03-08T03:36:58;96880.28;;;3.13;82.13
39769;BME280;38939;47.824;14.642;2024-03-08T03:38:00;96881.41;;;3.19;81.73
39769;BME280;38939;47.824;14.642;2024-03-08T03:39:21;96879.03;;;3.26;81.60
39769;BME280;38939;47.824;14.642;2024-03-08T03:40:24;96873.56;;;3.29;81.12
39769;BME280;38939;47.824;14.642;2024-03-08T03:41:26;96875.97;;;3.30;81.10
39769;BME280;38939;47.824;14.642;2024-03-08T03:42:28;96874.03;;;3.24;80.76
39769;BME280;38939;47.824;14.642;2024-03-08T03:43:30;96879.19;;;3.24;80.63
39769;BME280;38939;47.824;14.642;2024-03-08T03:44:33;96880.50;;;3.28;80.41
39769;BME280;38939;47.824;14.642;2024-03-08T03:45:34;96875.69;;;3.33;80.21
39769;BME280;38939;47.824;14.642;2024-03-08T03:46:41;96872.78;;;3.36;80.41
39769;BME280;38939;47.824;14.642;2024-03-08T03:47:46;96879.38;;;3.39;80.21
39769;BME280;38939;47.824;14.642;2024-03-08T03:48:48;96868.78;;;3.42;80.11
39769;BME280;38939;47.824;14.642;2024-03-08T03:49:50;96868.44;;;3.45;80.08
39769;BME280;38939;47.824;14.642;2024-03-08T03:50:51;96870.06;;;3.46;79.94
39769;BME280;38939;47.824;14.642;2024-03-08T03:51:53;96873.78;;;3.44;79.61
39769;BME280;38939;47.824;14.642;2024-03-08T03:52:55;96874.69;;;3.34;79.48
39769;BME280;38939;47.824;14.642;2024-03-08T03:53:57;96873.38;;;3.22;79.35
39769;BME280;38939;47.824;14.642;2024-03-08T03:54:59;96870.00;;;3.22;79.67
39769;BME280;38939;47.824;14.642;2024-03-08T03:56:01;96864.38;;;3.26;79.63
39769;BME280;38939;47.824;14.642;2024-03-08T03:57:03;96866.47;;;3.31;80.22
39769;BME280;38939;47.824;14.642;2024-03-08T03:58:04;96865.19;;;3.35;79.56
39769;BME280;38939;47.824;14.642;2024-03-08T03:59:06;96870.19;;;3.36;79.68
39769;BME280;38939;47.824;14.642;2024-03-08T04:00:08;96865.66;;;3.30;79.35
39769;BME280;38939;47.824;14.642;2024-03-08T04:01:13;96861.44;;;3.21;79.22
39769;BME280;38939;47.824;14.642;2024-03-08T04:02:15;96861.41;;;3.13;79.49
39769;BME280;38939;47.824;14.642;2024-03-08T04:03:17;96866.38;;;3.06;79.89
39769;BME280;38939;47.824;14.642;2024-03-08T04:04:19;96864.94;;;3.04;79.61
39769;BME280;38939;47.824;14.642;2024-03-08T04:05:21;96864.47;;;3.08;79.64
39769;BME280;38939;47.824;14.642;2024-03-08T04:06:23;96864.16;;;3.11;79.86
39769;BME280;38939;47.824;14.642;2024-03-08T04:07:25;96859.47;;;3.15;79.75
39769;BME280;38939;47.824;14.642;2024-03-08T04:08:27;96858.53;;;3.16;79.58
39769;BME280;38939;47.824;14.642;2024-03-08T04:09:29;96864.00;;;3.13;79.57
39769;BME280;38939;47.824;14.642;2024-03-08T04:10:31;96858.16;;;3.03;80.31
39769;BME280;38939;47.824;14.642;2024-03-08T04:11:33;96856.84;;;2.98;79.82
39769;BME280;38939;47.824;14.642;2024-03-08T04:12:35;96860.09;;;3.00;80.08
39769;BME280;38939;47.824;14.642;2024-03-08T04:13:37;96860.72;;;3.03;80.32
39769;BME280;38939;47.824;14.642;2024-03-08T04:14:41;96854.63;;;3.04;79.76
39769;BME280;38939;47.824;14.642;2024-03-08T04:15:43;96860.44;;;3.06;79.83
39769;BME280;38939;47.824;14.642;2024-03-08T04:16:50;96860.41;;;2.97;79.58
39769;BME280;38939;47.824;14.642;2024-03-08T04:17:52;96858.75;;;2.88;80.04
39769;BME280;38939;47.824;14.642;2024-03-08T04:18:54;96856.66;;;2.92;80.28
39769;BME280;38939;47.824;14.642;2024-03-08T04:19:56;96856.66;;;2.92;79.66
39769;BME280;38939;47.824;14.642;2024-03-08T04:20:58;96855.03;;;2.91;79.67
39769;BME280;38939;47.824;14.642;2024-03-08T04:22:00;96850.72;;;2.91;80.06
39769;BME280;38939;47.824;14.642;2024-03-08T04:23:02;96856.66;;;2.92;79.93
39769;BME280;38939;47.824;14.642;2024-03-08T04:24:04;96847.78;;;2.86;80.17
39769;BME280;38939;47.824;14.642;2024-03-08T04:25:07;96854.84;;;2.84;79.83
39769;BME280;38939;47.824;14.642;2024-03-08T04:26:11;96850.34;;;2.86;80.24
39769;BME280;38939;47.824;14.642;2024-03-08T04:27:13;96850.50;;;2.85;79.74
39769;BME280;38939;47.824;14.642;2024-03-08T04:28:16;96847.28;;;2.83;79.73
39769;BME280;38939;47.824;14.642;2024-03-08T04:29:19;96843.25;;;2.80;79.99
39769;BME280;38939;47.824;14.642;2024-03-08T04:30:21;96852.25;;;2.76;80.16
39769;BME280;38939;47.824;14.642;2024-03-08T04:31:23;96852.97;;;2.60;80.68
39769;BME280;38939;47.824;14.642;2024-03-08T04:32:25;96846.38;;;2.57;81.10
39769;BME280;38939;47.824;14.642;2024-03-08T04:33:27;96843.78;;;2.57;81.10
39769;BME280;38939;47.824;14.642;2024-03-08T04:34:30;96846.00;;;2.52;80.70
39769;BME280;38939;47.824;14.642;2024-03-08T04:35:32;96853.72;;;2.52;80.97
39769;BME280;38939;47.824;14.642;2024-03-08T04:36:34;96851.75;;;2.46;81.38
39769;BME280;38939;47.824;14.642;2024-03-08T04:37:36;96844.31;;;2.35;81.77
39769;BME280;38939;47.824;14.642;2024-03-08T04:38:38;96848.75;;;2.25;81.66
39769;BME280;38939;47.824;14.642;2024-03-08T04:39:42;96850.94;;;2.19;81.85
39769;BME280;38939;47.824;14.642;2024-03-08T04:40:44;96844.53;;;2.24;82.17
39769;BME280;38939;47.824;14.642;2024-03-08T04:41:46;96850.00;;;2.20;82.20
39769;BME280;38939;47.824;14.642;2024-03-08T04:42:48;96844.84;;;2.20;82.40
39769;BME280;38939;47.824;14.642;2024-03-08T04:43:52;96844.34;;;2.17;82.68
39769;BME280;38939;47.824;14.642;2024-03-08T04:44:54;96846.72;;;2.10;82.65
39769;BME280;38939;47.824;14.642;2024-03-08T04:45:57;96849.28;;;2.10;82.55
39769;BME280;38939;47.824;14.642;2024-03-08T04:46:58;96846.72;;;2.10;82.85
39769;BME280;38939;47.824;14.642;2024-03-08T04:48:02;96844.75;;;2.04;82.72
39769;BME280;38939;47.824;14.642;2024-03-08T04:49:04;96845.47;;;1.96;83.56
39769;BME280;38939;47.824;14.642;2024-03-08T04:50:06;96843.66;;;1.89;83.90
39769;BME280;38939;47.824;14.642;2024-03-08T04:51:08;96839.44;;;1.88;83.52
39769;BME280;38939;47.824;14.642;2024-03-08T04:52:11;96841.72;;;1.91;84.02
39769;BME280;38939;47.824;14.642;2024-03-08T04:53:14;96844.97;;;1.93;83.60
39769;BME280;38939;47.824;14.642;2024-03-08T04:54:15;96836.66;;;1.81;83.81
39769;BME280;38939;47.824;14.642;2024-03-08T04:55:17;96839.31;;;1.71;83.91
39769;BME280;38939;47.824;14.642;2024-03-08T04:56:23;96841.09;;;1.71;84.99
39769;BME280;38939;47.824;14.642;2024-03-08T04:57:24;96840.56;;;1.67;84.12
39769;BME280;38939;47.824;14.642;2024-03-08T04:58:27;96845.94;;;1.56;84.98
39769;BME280;38939;47.824;14.642;2024-03-08T04:59:29;96843.19;;;1.57;85.22
39769;BME280;38939;47.824;14.642;2024-03-08T05:00:31;96838.97;;;1.66;85.05
39769;BME280;38939;47.824;14.642;2024-03-08T05:01:34;96836.16;;;1.77;84.71
39769;BME280;38939;47.824;14.642;2024-03-08T05:02:39;96841.06;;;1.89;84.30
39769;BME280;38939;47.824;14.642;2024-03-08T05:03:41;96837.75;;;1.96;84.58
39769;BME280;38939;47.824;14.642;2024-03-08T05:04:43;96843.13;;;2.03;84.42
39769;BME280;38939;47.824;14.642;2024-03-08T05:05:45;96841.34;;;2.04;83.45
39769;BME280;38939;47.824;14.642;2024-03-08T05:06:47;96840.53;;;2.03;83.12
39769;BME280;38939;47.824;14.642;2024-03-08T05:07:49;96837.69;;;2.06;83.04
39769;BME280;38939;47.824;14.642;2024-03-08T05:08:51;96833.84;;;2.10;82.85
39769;BME280;38939;47.824;14.642;2024-03-08T05:09:53;96843.78;;;2.05;82.64
39769;BME280;38939;47.824;14.642;2024-03-08T05:10:55;96834.34;;;1.96;82.44
39769;BME280;38939;47.824;14.642;2024-03-08T05:11:58;96830.78;;;1.89;83.23
39769;BME280;38939;47.824;14.642;2024-03-08T05:13:01;96833.34;;;1.89;82.28
39769;BME280;38939;47.824;14.642;2024-03-08T05:14:03;96839.81;;;1.93;82.21
39769;BME280;38939;47.824;14.642;2024-03-08T05:15:06;96830.84;;;1.97;83.07
39769;BME280;38939;47.824;14.642;2024-03-08T05:16:09;96830.25;;;2.03;82.44
39769;BME280;38939;47.824;14.642;2024-03-08T05:17:11;96835.09;;;2.06;82.16
39769;BME280;38939;47.824;14.642;2024-03-08T05:18:13;96840.25;;;2.06;82.32
39769;BME280;38939;47.824;14.642;2024-03-08T05:19:16;96836.72;;;2.07;81.90
39769;BME280;38939;47.824;14.642;2024-03-08T05:20:18;96839.28;;;2.07;81.91
39769;BME280;38939;47.824;14.642;2024-03-08T05:21:21;96834.28;;;2.06;82.24
39769;BME280;38939;47.824;14.642;2024-03-08T05:22:23;96829.31;;;2.04;81.93
39769;BME280;38939;47.824;14.642;2024-03-08T05:23:25;96829.13;;;2.06;82.13
39769;BME280;38939;47.824;14.642;2024-03-08T05:24:26;96828.03;;;2.08;81.61
39769;BME280;38939;47.824;14.642;2024-03-08T05:25:28;96829.78;;;2.08;81.72
39769;BME280;38939;47.824;14.642;2024-03-08T05:26:30;96830.63;;;2.08;81.60
39769;BME280;38939;47.824;14.642;2024-03-08T05:27:32;96830.16;;;2.13;81.97
39769;BME280;38939;47.824;14.642;2024-03-08T05:28:34;96827.78;;;2.19;81.38
39769;BME280;38939;47.824;14.642;2024-03-08T05:29:35;96823.16;;;2.23;81.21
39769;BME280;38939;47.824;14.642;2024-03-08T05:30:38;96825.53;;;2.16;81.20
39769;BME280;38939;47.824;14.642;2024-03-08T05:31:49;96824.50;;;2.09;81.39